createdAt,value
2023-09-11T00:00:44.301Z,10.88
2023-09-11T00:03:12.303Z,11.38
2023-09-11T00:05:45.827Z,11.80
2023-09-11T00:08:19.903Z,12.30
2023-09-11T00:10:47.714Z,10.93
2023-09-11T00:13:15.521Z,11.45
2023-09-11T00:15:43.375Z,11.50
2023-09-11T00:18:11.377Z,10.93
2023-09-11T00:20:39.313Z,10.60
2023-09-11T00:23:09.533Z,11.20
2023-09-11T00:25:37.402Z,10.20
2023-09-11T00:28:06.008Z,11.23
2023-09-11T00:30:33.885Z,11.13
2023-09-11T00:33:01.785Z,11.05
2023-09-11T00:35:30.019Z,11.15
2023-09-11T00:37:58.005Z,12.07
2023-09-11T00:40:27.364Z,11.43
2023-09-11T00:42:55.129Z,11.52
2023-09-11T00:45:23.233Z,10.98
2023-09-11T00:47:51.718Z,10.40
2023-09-11T00:50:19.716Z,11.20
2023-09-11T00:52:48.559Z,11.32
2023-09-11T00:55:16.600Z,11.45
2023-09-11T00:57:46.103Z,11.98
2023-09-11T01:00:15.774Z,10.65
2023-09-11T01:02:43.871Z,11.23
2023-09-11T01:05:12.934Z,11.77
2023-09-11T01:07:40.802Z,10.82
2023-09-11T01:10:11.264Z,11.52
2023-09-11T01:12:40.334Z,11.13
2023-09-11T01:15:11.202Z,12.00
2023-09-11T01:17:45.223Z,10.93
2023-09-11T01:20:37.466Z,12.50
2023-09-11T01:23:24.257Z,11.05
2023-09-11T01:26:07.998Z,11.50
2023-09-11T01:28:58.289Z,12.03
2023-09-11T01:31:26.629Z,11.25
2023-09-11T01:33:55.704Z,11.38
2023-09-11T01:36:23.733Z,12.00
2023-09-11T01:38:51.566Z,11.30
2023-09-11T01:41:19.932Z,11.90
2023-09-11T01:43:48.188Z,11.60
2023-09-11T01:46:18.687Z,11.95
2023-09-11T01:48:48.280Z,11.88
2023-09-11T01:51:16.738Z,12.25
2023-09-11T01:53:44.974Z,11.35
2023-09-11T01:56:13.074Z,11.27
2023-09-11T01:58:41.225Z,11.98
2023-09-11T02:01:09.220Z,11.80
2023-09-11T02:03:42.217Z,11.30
2023-09-11T02:06:10.560Z,12.35
2023-09-11T02:08:38.453Z,11.32
2023-09-11T02:11:08.372Z,12.23
2023-09-11T02:13:37.465Z,11.20
2023-09-11T02:16:05.714Z,11.88
2023-09-11T02:18:33.771Z,11.25
2023-09-11T02:21:03.117Z,11.68
2023-09-11T02:23:30.933Z,11.85
2023-09-11T02:25:58.895Z,11.50
2023-09-11T02:28:27.989Z,11.95
2023-09-11T02:30:56.382Z,11.80
2023-09-11T02:33:24.284Z,12.45
2023-09-11T02:35:55.351Z,12.80
2023-09-11T02:38:24.714Z,14.25
2023-09-11T02:41:06.896Z,13.38
2023-09-11T02:43:36.783Z,12.43
2023-09-11T02:46:04.718Z,12.07
2023-09-11T02:48:33.774Z,12.57
2023-09-11T02:51:01.767Z,13.38
2023-09-11T02:53:31.361Z,13.15
2023-09-11T02:55:59.249Z,13.13
2023-09-11T02:58:27.205Z,13.50
2023-09-11T03:00:55.140Z,13.10
2023-09-11T03:03:23.273Z,13.07
2023-09-11T03:05:56.995Z,12.68
2023-09-11T03:08:25.236Z,12.95
2023-09-11T03:10:57.148Z,13.82
2023-09-11T03:13:25.216Z,13.40
2023-09-11T03:15:53.109Z,13.40
2023-09-11T03:18:23.069Z,12.80
2023-09-11T03:20:56.124Z,13.43
2023-09-11T03:23:24.091Z,13.13
2023-09-11T03:25:51.960Z,13.88
2023-09-11T03:28:21.159Z,13.85
2023-09-11T03:30:49.244Z,13.85
2023-09-11T03:33:17.596Z,14.60
2023-09-11T03:35:47.565Z,14.55
2023-09-11T03:38:15.705Z,14.85
2023-09-11T03:40:45.474Z,14.07
2023-09-11T03:43:13.597Z,14.65
2023-09-11T03:45:43.027Z,13.50
2023-09-11T03:48:11.415Z,14.15
2023-09-11T03:50:39.405Z,14.70
2023-09-11T03:53:07.351Z,13.15
2023-09-11T03:55:35.419Z,14.40
2023-09-11T03:58:03.509Z,14.30
2023-09-11T04:00:31.451Z,13.18
2023-09-11T04:03:00.879Z,15.60
2023-09-11T04:05:29.177Z,14.18
2023-09-11T04:07:57.339Z,14.80
2023-09-11T04:10:25.190Z,14.20
2023-09-11T04:12:53.170Z,16.20
2023-09-11T04:15:21.249Z,14.18
2023-09-11T04:17:49.232Z,15.13
2023-09-11T04:20:18.498Z,14.85
2023-09-11T04:22:46.707Z,14.45
2023-09-11T04:25:14.760Z,15.20
2023-09-11T04:27:42.668Z,14.38
2023-09-11T04:30:12.312Z,14.00
2023-09-11T04:32:40.287Z,13.50
2023-09-11T04:35:09.880Z,14.52
2023-09-11T04:37:39.498Z,14.70
2023-09-11T04:40:08.233Z,14.35
2023-09-11T04:42:39.488Z,14.43
2023-09-11T04:45:09.002Z,13.57
2023-09-11T04:47:36.926Z,12.98
2023-09-11T04:50:06.034Z,13.93
2023-09-11T04:52:33.856Z,13.82
2023-09-11T04:55:03.788Z,14.48
2023-09-11T04:57:31.712Z,14.45
2023-09-11T05:00:00.891Z,13.27
2023-09-11T05:02:28.850Z,13.32
2023-09-11T05:04:57.651Z,12.93
2023-09-11T05:07:25.530Z,14.07
2023-09-11T05:09:53.698Z,13.90
2023-09-11T05:12:22.959Z,14.20
2023-09-11T05:14:51.023Z,14.20
2023-09-11T05:17:19.413Z,16.70
2023-09-11T05:19:47.238Z,14.13
2023-09-11T05:22:15.350Z,14.25
2023-09-11T05:24:43.172Z,13.68
2023-09-11T05:27:11.300Z,13.48
2023-09-11T05:29:40.689Z,13.25
2023-09-11T05:32:08.698Z,14.27
2023-09-11T05:34:36.698Z,14.60
2023-09-11T05:37:04.854Z,14.77
2023-09-11T05:39:33.413Z,15.07
2023-09-11T05:42:01.514Z,13.98
2023-09-11T05:44:29.490Z,15.20
2023-09-11T05:46:59.951Z,15.70
2023-09-11T05:49:29.706Z,14.70
2023-09-11T05:51:57.647Z,15.48
2023-09-11T05:54:25.515Z,14.73
2023-09-11T05:56:54.608Z,14.80
2023-09-11T05:59:22.603Z,14.27
2023-09-11T06:01:50.424Z,15.10
2023-09-11T06:04:19.766Z,14.00
2023-09-11T06:06:47.848Z,14.77
2023-09-11T06:09:15.799Z,14.63
2023-09-11T06:11:43.628Z,14.02
2023-09-11T06:14:11.667Z,15.65
2023-09-11T06:16:39.593Z,15.57
2023-09-11T06:19:07.480Z,16.55
2023-09-11T06:21:37.106Z,16.67
2023-09-11T06:24:06.810Z,16.70
2023-09-11T06:26:34.797Z,16.67
2023-09-11T06:29:02.695Z,15.60
2023-09-11T06:31:31.092Z,16.77
2023-09-11T06:33:59.007Z,17.58
2023-09-11T06:36:27.097Z,17.38
2023-09-11T06:38:56.317Z,17.77
2023-09-11T06:41:24.102Z,18.60
2023-09-11T06:43:51.914Z,16.98
2023-09-11T06:46:19.834Z,17.63
2023-09-11T06:48:47.915Z,18.58
2023-09-11T06:51:15.821Z,17.70
2023-09-11T06:53:43.853Z,18.90
2023-09-11T06:56:13.652Z,19.27
2023-09-11T06:58:43.595Z,18.50
2023-09-11T07:01:11.635Z,18.13
2023-09-11T07:03:39.839Z,18.70
2023-09-11T07:06:07.711Z,19.08
2023-09-11T07:08:36.102Z,18.17
2023-09-11T07:11:04.129Z,18.98
2023-09-11T07:13:33.577Z,18.35
2023-09-11T07:16:03.050Z,18.75
2023-09-11T07:18:30.990Z,19.45
2023-09-11T07:20:58.891Z,19.02
2023-09-11T07:23:29.413Z,17.80
2023-09-11T07:25:57.482Z,17.58
2023-09-11T07:28:28.000Z,16.45
2023-09-11T07:30:57.725Z,17.55
2023-09-11T07:33:25.662Z,18.73
2023-09-11T07:35:53.783Z,16.77
2023-09-11T07:38:21.969Z,14.93
2023-09-11T07:40:49.835Z,16.08
2023-09-11T07:43:17.620Z,15.10
2023-09-11T07:45:46.374Z,17.38
2023-09-11T07:48:15.590Z,16.30
2023-09-11T07:50:43.607Z,14.93
2023-09-11T07:53:11.967Z,15.60
2023-09-11T07:55:39.798Z,14.48
2023-09-11T07:58:07.714Z,15.10
2023-09-11T08:00:35.611Z,14.40
2023-09-11T08:03:04.637Z,13.15
2023-09-11T08:05:34.386Z,15.15
2023-09-11T08:08:03.885Z,14.50
2023-09-11T08:10:31.759Z,15.18
2023-09-11T08:12:59.683Z,14.68
2023-09-11T08:15:29.541Z,15.52
2023-09-11T08:17:57.410Z,15.07
2023-09-11T08:20:25.389Z,14.30
2023-09-11T08:22:54.580Z,15.75
2023-09-11T08:25:22.515Z,15.30
2023-09-11T08:27:50.479Z,15.15
2023-09-11T08:30:18.857Z,15.05
2023-09-11T08:32:46.926Z,14.23
2023-09-11T08:35:15.081Z,15.43
2023-09-11T08:37:43.277Z,13.85
2023-09-11T08:40:12.941Z,13.98
2023-09-11T08:42:40.728Z,14.38
2023-09-11T08:45:09.460Z,13.73
2023-09-11T08:47:38.969Z,13.32
2023-09-11T08:50:08.350Z,14.32
2023-09-11T08:52:37.212Z,13.95
2023-09-11T08:55:09.782Z,13.85
2023-09-11T08:57:41.161Z,12.95
2023-09-11T09:00:12.891Z,12.05
2023-09-11T09:02:41.454Z,12.98
2023-09-11T09:05:10.357Z,11.38
2023-09-11T09:07:40.211Z,11.23
2023-09-11T09:10:09.256Z,11.40
2023-09-11T09:12:37.461Z,11.23
2023-09-11T09:15:08.569Z,10.60
2023-09-11T09:17:36.667Z,10.93
2023-09-11T09:20:05.455Z,9.10
2023-09-11T09:22:33.495Z,9.05
2023-09-11T09:25:01.454Z,11.43
2023-09-11T09:27:29.742Z,10.55
2023-09-11T09:29:57.982Z,9.35
2023-09-11T09:32:27.319Z,9.32
2023-09-11T09:34:56.226Z,10.90
2023-09-11T09:37:24.423Z,20.52
2023-09-11T09:39:52.218Z,8.63
2023-09-11T09:42:20.694Z,8.45
2023-09-11T09:44:54.198Z,8.07
2023-09-11T09:47:23.909Z,8.50
2023-09-11T09:49:54.433Z,7.32
2023-09-11T09:52:23.813Z,7.85
2023-09-11T09:54:53.715Z,8.98
2023-09-11T09:57:23.608Z,8.18
2023-09-11T09:59:54.142Z,8.20
2023-09-11T10:02:28.055Z,8.07
2023-09-11T10:05:00.874Z,7.47
2023-09-11T10:07:39.736Z,6.32
2023-09-11T10:10:21.477Z,6.20
2023-09-11T10:12:54.134Z,6.32
2023-09-11T10:15:22.858Z,6.40
2023-09-11T10:17:53.048Z,7.43
2023-09-11T10:20:22.616Z,7.55
2023-09-11T10:22:51.466Z,6.90
2023-09-11T10:25:19.658Z,6.18
2023-09-11T10:27:48.558Z,7.40
2023-09-11T10:30:18.368Z,6.05
2023-09-11T10:32:49.807Z,5.90
2023-09-11T10:35:17.927Z,5.70
2023-09-11T10:37:48.548Z,6.88
2023-09-11T10:40:17.253Z,6.60
2023-09-11T10:42:45.561Z,6.30
2023-09-11T10:45:27.509Z,6.22
2023-09-11T10:47:55.537Z,6.43
2023-09-11T10:50:26.025Z,6.32
2023-09-11T10:52:58.421Z,6.13
2023-09-11T10:55:26.446Z,6.32
2023-09-11T10:57:54.978Z,7.32
2023-09-11T11:00:23.808Z,7.00
2023-09-11T11:02:52.327Z,6.32
2023-09-11T11:05:20.913Z,6.47
2023-09-11T11:07:50.418Z,6.07
2023-09-11T11:10:21.780Z,6.15
2023-09-11T11:12:49.947Z,6.22
2023-09-11T11:15:22.338Z,5.90
2023-09-11T11:18:09.118Z,6.57
2023-09-11T11:20:37.365Z,6.30
2023-09-11T11:23:10.285Z,6.15
2023-09-11T11:25:42.742Z,5.57
2023-09-11T11:28:17.523Z,6.25
2023-09-11T11:30:46.087Z,6.60
2023-09-11T11:33:17.078Z,6.57
2023-09-11T11:35:48.610Z,6.25
2023-09-11T11:38:18.008Z,6.25
2023-09-11T11:40:48.577Z,5.72
2023-09-11T11:43:16.945Z,5.90
2023-09-11T11:45:48.317Z,5.10
2023-09-11T11:48:18.001Z,5.90
2023-09-11T11:50:46.679Z,6.07
2023-09-11T11:53:16.202Z,7.72
2023-09-11T11:55:44.671Z,7.22
2023-09-11T11:58:14.751Z,7.22
2023-09-11T12:00:42.900Z,13.55
2023-09-11T12:03:10.846Z,7.75
2023-09-11T12:05:44.643Z,8.48
2023-09-11T12:08:14.326Z,7.97
2023-09-11T12:10:45.486Z,7.45
2023-09-11T12:13:15.765Z,6.90
2023-09-11T12:15:43.719Z,6.10
2023-09-11T12:18:15.191Z,5.60
2023-09-11T12:20:54.722Z,6.32
2023-09-11T12:23:23.294Z,7.15
2023-09-11T12:25:51.655Z,6.38
2023-09-11T12:28:21.285Z,5.80
2023-09-11T12:30:49.378Z,5.38
2023-09-11T12:33:20.185Z,5.70
2023-09-11T12:35:48.166Z,5.70
2023-09-11T12:38:16.045Z,5.88
2023-09-11T12:40:44.497Z,5.13
2023-09-11T12:43:12.602Z,4.45
2023-09-11T12:45:41.981Z,3.90
2023-09-11T12:48:10.424Z,4.13
2023-09-11T12:50:40.735Z,4.28
2023-09-11T12:53:09.160Z,3.83
2023-09-11T12:55:37.356Z,3.88
2023-09-11T12:58:05.747Z,4.57
2023-09-11T13:00:34.899Z,4.20
2023-09-11T13:03:07.405Z,3.60
2023-09-11T13:05:36.088Z,3.38
2023-09-11T13:08:04.192Z,3.63
2023-09-11T13:10:32.392Z,4.18
2023-09-11T13:13:00.281Z,3.60
2023-09-11T13:15:28.204Z,3.92
2023-09-11T13:17:56.394Z,3.97
2023-09-11T13:20:25.763Z,3.92
2023-09-11T13:22:53.799Z,3.67
2023-09-11T13:25:21.695Z,4.05
2023-09-11T13:27:49.663Z,3.80
2023-09-11T13:30:17.613Z,3.72
2023-09-11T13:32:46.854Z,3.70
2023-09-11T13:35:15.383Z,3.88
2023-09-11T13:37:44.682Z,3.83
2023-09-11T13:40:12.906Z,3.88
2023-09-11T13:42:40.852Z,3.53
2023-09-11T13:45:11.387Z,3.92
2023-09-11T13:47:39.520Z,3.58
2023-09-11T13:50:07.957Z,3.90
2023-09-11T13:52:36.225Z,3.85
2023-09-11T13:55:06.632Z,3.85
2023-09-11T13:57:34.526Z,3.38
2023-09-11T14:00:02.779Z,3.80
2023-09-11T14:02:39.843Z,3.28
2023-09-11T14:05:08.447Z,3.20
2023-09-11T14:07:36.346Z,3.47
2023-09-11T14:10:06.140Z,3.70
2023-09-11T14:12:33.934Z,4.00
2023-09-11T14:15:01.740Z,3.35
2023-09-11T14:17:29.853Z,3.78
2023-09-11T14:19:57.758Z,3.47
2023-09-11T14:22:26.539Z,4.10
2023-09-11T14:24:54.623Z,3.83
2023-09-11T14:27:24.028Z,3.47
2023-09-11T14:29:51.956Z,3.67
2023-09-11T14:32:20.153Z,3.95
2023-09-11T14:34:47.939Z,3.88
2023-09-11T14:37:23.464Z,3.80
2023-09-11T14:39:51.935Z,4.03
2023-09-11T14:42:19.881Z,4.43
2023-09-11T14:44:49.282Z,4.72
2023-09-11T14:47:17.403Z,4.70
2023-09-11T14:49:47.534Z,4.80
2023-09-11T14:52:15.815Z,4.57
2023-09-11T14:54:53.628Z,4.78
2023-09-11T14:57:23.204Z,4.45
2023-09-11T14:59:52.952Z,4.40
2023-09-11T15:02:21.285Z,4.55
2023-09-11T15:04:51.469Z,5.03
2023-09-11T15:07:21.061Z,4.50
2023-09-11T15:09:49.219Z,5.05
2023-09-11T15:12:17.393Z,5.30
2023-09-11T15:14:45.666Z,4.65
2023-09-11T15:17:15.072Z,5.07
2023-09-11T15:19:42.992Z,5.70
2023-09-11T15:22:11.050Z,5.25
2023-09-11T15:24:38.960Z,5.68
2023-09-11T15:27:07.345Z,5.00
2023-09-11T15:29:35.376Z,6.13
2023-09-11T15:32:12.358Z,5.07
2023-09-11T15:34:43.796Z,4.97
2023-09-11T15:37:15.389Z,5.60
2023-09-11T15:39:44.294Z,5.90
2023-09-11T15:42:12.429Z,6.28
2023-09-11T15:44:40.456Z,6.13
2023-09-11T15:47:09.340Z,5.97
2023-09-11T15:49:37.216Z,7.05
2023-09-11T15:52:07.606Z,6.63
2023-09-11T15:54:35.750Z,7.40
2023-09-11T15:57:04.064Z,7.13
2023-09-11T15:59:32.145Z,7.47
2023-09-11T16:02:00.512Z,8.50
2023-09-11T16:04:28.665Z,8.82
2023-09-11T16:06:56.625Z,9.27
2023-09-11T16:09:26.125Z,9.35
2023-09-11T16:11:54.860Z,8.98
2023-09-11T16:14:22.716Z,8.60
2023-09-11T16:16:51.865Z,7.32
2023-09-11T16:19:22.979Z,8.00
2023-09-11T16:21:51.633Z,8.38
2023-09-11T16:24:19.735Z,7.70
2023-09-11T16:26:49.077Z,8.50
2023-09-11T16:29:17.033Z,8.18
2023-09-11T16:31:44.916Z,8.57
2023-09-11T16:34:12.800Z,9.05
2023-09-11T16:36:40.836Z,9.85
2023-09-11T16:39:08.883Z,10.10
2023-09-11T16:41:36.848Z,10.50
2023-09-11T16:44:07.104Z,11.07
2023-09-11T16:46:35.297Z,11.98
2023-09-11T16:49:03.436Z,11.70
2023-09-11T16:51:31.396Z,13.63
2023-09-11T16:53:59.411Z,14.70
2023-09-11T16:56:27.360Z,15.80
2023-09-11T16:58:55.292Z,14.68
2023-09-11T17:01:24.569Z,14.52
2023-09-11T17:03:52.621Z,15.05
2023-09-11T17:06:20.686Z,14.05
2023-09-11T17:08:48.626Z,14.85
2023-09-11T17:11:16.487Z,16.48
2023-09-11T17:13:44.365Z,15.73
2023-09-11T17:16:12.327Z,15.80
2023-09-11T17:18:41.947Z,14.05
2023-09-11T17:21:10.501Z,13.98
2023-09-11T17:23:39.595Z,14.65
2023-09-11T17:26:07.808Z,14.52
2023-09-11T17:28:36.358Z,13.27
2023-09-11T17:31:04.361Z,12.75
2023-09-11T17:33:32.367Z,12.70
2023-09-11T17:36:01.684Z,12.07
2023-09-11T17:38:29.585Z,11.70
2023-09-11T17:40:57.336Z,13.27
2023-09-11T17:43:25.338Z,12.80
2023-09-11T17:45:53.141Z,12.75
2023-09-11T17:48:21.174Z,11.55
2023-09-11T17:50:52.815Z,12.07
2023-09-11T17:53:22.565Z,12.43
2023-09-11T17:55:50.661Z,12.00
2023-09-11T17:58:18.828Z,11.85
2023-09-11T18:00:46.844Z,12.30
2023-09-11T18:03:14.826Z,13.98
2023-09-11T18:05:42.781Z,13.20
2023-09-11T18:08:10.733Z,14.70
2023-09-11T18:10:40.021Z,14.98
2023-09-11T18:13:08.092Z,15.38
2023-09-11T18:15:35.909Z,15.77
2023-09-11T18:18:04.244Z,16.10
2023-09-11T18:20:32.232Z,17.20
2023-09-11T18:23:00.123Z,18.75
2023-09-11T18:25:27.974Z,17.92
2023-09-11T18:27:57.310Z,18.92
2023-09-11T18:30:25.401Z,19.92
2023-09-11T18:32:53.541Z,19.42
2023-09-11T18:35:21.718Z,21.08
2023-09-11T18:37:51.753Z,21.77
2023-09-11T18:40:19.650Z,22.23
2023-09-11T18:42:47.578Z,22.20
2023-09-11T18:45:16.992Z,24.00
2023-09-11T18:47:45.331Z,22.25
2023-09-11T18:50:13.310Z,21.27
2023-09-11T18:52:44.799Z,22.75
2023-09-11T18:55:13.022Z,22.13
2023-09-11T18:57:41.070Z,22.05
2023-09-11T19:00:10.332Z,21.55
2023-09-11T19:02:39.539Z,22.00
2023-09-11T19:05:08.397Z,22.48
2023-09-11T19:07:36.214Z,21.23
2023-09-11T19:10:04.530Z,21.42
2023-09-11T19:12:32.420Z,23.63
2023-09-11T19:15:00.603Z,21.45
2023-09-11T19:17:28.689Z,21.00
2023-09-11T19:19:57.999Z,20.05
2023-09-11T19:22:25.987Z,19.55
2023-09-11T19:24:53.988Z,21.88
2023-09-11T19:27:21.939Z,22.05
2023-09-11T19:29:50.083Z,22.40
2023-09-11T19:32:18.019Z,20.65
2023-09-11T19:34:46.066Z,21.33
2023-09-11T19:37:15.215Z,23.00
2023-09-11T19:39:43.268Z,24.05
2023-09-11T19:42:13.804Z,24.52
2023-09-11T19:44:41.960Z,24.92
2023-09-11T19:47:10.958Z,23.17
2023-09-11T19:49:39.126Z,23.25
2023-09-11T19:52:07.623Z,23.23
2023-09-11T19:54:37.880Z,20.95
2023-09-11T19:57:06.072Z,21.10
2023-09-11T19:59:34.446Z,21.63
2023-09-11T20:02:02.295Z,23.17
2023-09-11T20:04:31.051Z,26.15
2023-09-11T20:06:58.909Z,26.25
2023-09-11T20:09:27.087Z,24.70
2023-09-11T20:11:56.285Z,27.60
2023-09-11T20:14:24.529Z,25.50
2023-09-11T20:16:52.479Z,28.08
2023-09-11T20:19:20.437Z,26.02
2023-09-11T20:21:48.406Z,28.50
2023-09-11T20:24:16.509Z,25.73
2023-09-11T20:26:44.407Z,28.23
2023-09-11T20:29:13.614Z,27.10
2023-09-11T20:31:41.634Z,28.88
2023-09-11T20:34:09.513Z,27.60
2023-09-11T20:36:37.476Z,27.52
2023-09-11T20:39:05.562Z,29.17
2023-09-11T20:41:33.587Z,30.35
2023-09-11T20:44:01.493Z,27.55
2023-09-11T20:46:31.112Z,30.02
2023-09-11T20:48:59.316Z,31.23
2023-09-11T20:51:27.284Z,28.55
2023-09-11T20:53:55.180Z,27.33
2023-09-11T20:56:23.359Z,27.40
2023-09-11T20:58:51.230Z,30.40
2023-09-11T21:01:19.631Z,31.80
2023-09-11T21:03:49.045Z,28.05
2023-09-11T21:06:17.148Z,30.42
2023-09-11T21:08:45.155Z,30.80
2023-09-11T21:11:13.183Z,31.08
2023-09-11T21:13:40.982Z,30.40
2023-09-11T21:16:08.880Z,28.90
2023-09-11T21:18:36.960Z,31.77
2023-09-11T21:21:06.450Z,31.30
2023-09-11T21:23:34.473Z,30.08
2023-09-11T21:26:02.332Z,30.90
2023-09-11T21:28:31.865Z,31.30
2023-09-11T21:30:59.754Z,31.48
2023-09-11T21:33:29.479Z,32.63
2023-09-11T21:35:57.907Z,31.58
2023-09-11T21:38:27.162Z,29.30
2023-09-11T21:40:55.192Z,31.70
2023-09-11T21:43:23.114Z,31.17
2023-09-11T21:45:51.011Z,31.13
2023-09-11T21:48:19.046Z,33.22
2023-09-11T21:50:46.933Z,33.25
2023-09-11T21:53:14.885Z,31.80
2023-09-11T21:55:44.450Z,32.88
2023-09-11T21:58:12.421Z,31.75
2023-09-11T22:00:40.352Z,31.15
2023-09-11T22:03:08.411Z,30.48
2023-09-11T22:05:36.528Z,30.08
2023-09-11T22:08:04.709Z,29.88
2023-09-11T22:10:32.691Z,29.48
2023-09-11T22:13:02.037Z,30.17
2023-09-11T22:15:29.916Z,29.85
2023-09-11T22:17:57.915Z,30.23
2023-09-11T22:20:25.824Z,29.83
2023-09-11T22:22:53.677Z,28.90
2023-09-11T22:25:21.701Z,29.08
2023-09-11T22:27:49.787Z,29.65
2023-09-11T22:30:19.156Z,31.25
2023-09-11T22:32:55.864Z,31.33
2023-09-11T22:35:24.963Z,31.20
2023-09-11T22:37:53.663Z,31.23
2023-09-11T22:40:21.894Z,32.22
2023-09-11T22:42:49.829Z,33.13
2023-09-11T22:45:19.451Z,33.55
2023-09-11T22:47:48.899Z,31.75
2023-09-11T22:50:17.540Z,32.20
2023-09-11T22:52:45.360Z,32.88
2023-09-11T22:55:13.430Z,32.67
2023-09-11T22:57:41.302Z,32.47
2023-09-11T23:00:10.020Z,32.03
2023-09-11T23:02:39.763Z,31.38
2023-09-11T23:05:08.098Z,32.90
2023-09-11T23:07:35.987Z,33.35
2023-09-11T23:10:04.036Z,33.67
2023-09-11T23:12:31.973Z,35.88
2023-09-11T23:15:00.159Z,32.58
2023-09-11T23:17:28.078Z,35.08
2023-09-11T23:19:57.431Z,34.05
2023-09-11T23:22:25.592Z,32.85
2023-09-11T23:24:53.493Z,33.85
2023-09-11T23:27:21.380Z,34.13
2023-09-11T23:29:49.275Z,31.95
2023-09-11T23:32:17.316Z,33.33
2023-09-11T23:34:45.235Z,31.10
2023-09-11T23:37:14.512Z,32.90
2023-09-11T23:39:42.483Z,34.78
2023-09-11T23:42:11.539Z,33.97
2023-09-11T23:44:39.586Z,36.53
2023-09-11T23:47:08.012Z,36.83
2023-09-11T23:49:35.833Z,37.13
2023-09-11T23:52:19.407Z,35.60
2023-09-11T23:54:53.545Z,34.63
2023-09-11T23:57:21.517Z,36.30
2023-09-11T23:59:49.590Z,35.75
